sensor_id;sensor_type;location;lat;lon;timestamp;temperature;humidity
54516;DHT22;40422;45.892;4.738;2023-09-12T03:01:59;18.90;89.70
54516;DHT22;40422;45.892;4.738;2023-09-12T03:04:25;18.90;89.70
54516;DHT22;40422;45.892;4.738;2023-09-12T03:06:52;19.00;89.90
54516;DHT22;40422;45.892;4.738;2023-09-12T03:09:18;18.90;89.70
54516;DHT22;40422;45.892;4.738;2023-09-12T03:11:45;18.90;89.80
54516;DHT22;40422;45.892;4.738;2023-09-12T03:14:10;18.90;89.50
54516;DHT22;40422;45.892;4.738;2023-09-12T03:16:36;19.00;89.20
54516;DHT22;40422;45.892;4.738;2023-09-12T03:19:03;19.00;89.30
54516;DHT22;40422;45.892;4.738;2023-09-12T03:21:29;19.00;89.10
54516;DHT22;40422;45.892;4.738;2023-09-12T03:23:54;19.10;89.10
54516;DHT22;40422;45.892;4.738;2023-09-12T03:26:20;19.10;89.30
54516;DHT22;40422;45.892;4.738;2023-09-12T03:28:45;19.10;89.00
54516;DHT22;40422;45.892;4.738;2023-09-12T03:31:13;19.10;89.10
54516;DHT22;40422;45.892;4.738;2023-09-12T03:33:40;19.10;89.90
54516;DHT22;40422;45.892;4.738;2023-09-12T03:36:07;19.10;89.90
54516;DHT22;40422;45.892;4.738;2023-09-12T03:38:33;19.10;89.60
54516;DHT22;40422;45.892;4.738;2023-09-12T03:40:59;19.10;89.70
54516;DHT22;40422;45.892;4.738;2023-09-12T03:43:25;19.10;89.40
54516;DHT22;40422;45.892;4.738;2023-09-12T03:45:50;19.10;89.50
54516;DHT22;40422;45.892;4.738;2023-09-12T03:48:16;19.10;89.50
54516;DHT22;40422;45.892;4.738;2023-09-12T03:50:42;19.10;89.40
54516;DHT22;40422;45.892;4.738;2023-09-12T03:53:08;19.00;89.50
54516;DHT22;40422;45.892;4.738;2023-09-12T03:55:33;18.90;89.80
54516;DHT22;40422;45.892;4.738;2023-09-12T03:57:59;18.90;89.40
54516;DHT22;40422;45.892;4.738;2023-09-12T04:00:25;18.70;89.60
54516;DHT22;40422;45.892;4.738;2023-09-12T04:02:50;18.70;90.00
54516;DHT22;40422;45.892;4.738;2023-09-12T04:05:16;18.70;90.00
54516;DHT22;40422;45.892;4.738;2023-09-12T04:07:41;18.70;89.70
54516;DHT22;40422;45.892;4.738;2023-09-12T04:10:07;18.70;89.50
54516;DHT22;40422;45.892;4.738;2023-09-12T04:12:33;18.60;89.30
54516;DHT22;40422;45.892;4.738;2023-09-12T04:14:59;18.70;89.40
54516;DHT22;40422;45.892;4.738;2023-09-12T04:17:24;18.60;89.30
54516;DHT22;40422;45.892;4.738;2023-09-12T04:19:50;18.60;89.30
54516;DHT22;40422;45.892;4.738;2023-09-12T04:22:16;18.60;89.20
54516;DHT22;40422;45.892;4.738;2023-09-12T04:24:41;18.60;89.20
54516;DHT22;40422;45.892;4.738;2023-09-12T04:27:07;18.60;88.50
54516;DHT22;40422;45.892;4.738;2023-09-12T04:29:33;18.70;88.00
54516;DHT22;40422;45.892;4.738;2023-09-12T04:32:04;18.70;87.90
54516;DHT22;40422;45.892;4.738;2023-09-12T04:34:30;18.70;87.90
54516;DHT22;40422;45.892;4.738;2023-09-12T04:36:56;18.70;87.90
54516;DHT22;40422;45.892;4.738;2023-09-12T04:39:21;18.70;87.50
54516;DHT22;40422;45.892;4.738;2023-09-12T04:41:47;18.70;86.90
54516;DHT22;40422;45.892;4.738;2023-09-12T04:44:13;18.80;86.60
54516;DHT22;40422;45.892;4.738;2023-09-12T04:46:38;18.90;86.20
54516;DHT22;40422;45.892;4.738;2023-09-12T04:49:04;18.90;85.60
54516;DHT22;40422;45.892;4.738;2023-09-12T04:51:29;19.00;85.50
54516;DHT22;40422;45.892;4.738;2023-09-12T04:53:55;19.00;85.20
54516;DHT22;40422;45.892;4.738;2023-09-12T04:56:21;19.00;86.90
54516;DHT22;40422;45.892;4.738;2023-09-12T04:58:49;19.20;89.90
54516;DHT22;40422;45.892;4.738;2023-09-12T05:01:15;19.30;87.10
54516;DHT22;40422;45.892;4.738;2023-09-12T05:03:41;19.30;85.70
54516;DHT22;40422;45.892;4.738;2023-09-12T05:06:08;19.20;85.70
54516;DHT22;40422;45.892;4.738;2023-09-12T05:08:34;19.20;86.20
54516;DHT22;40422;45.892;4.738;2023-09-12T05:11:00;19.20;85.50
54516;DHT22;40422;45.892;4.738;2023-09-12T05:13:27;19.10;85.40
54516;DHT22;40422;45.892;4.738;2023-09-12T05:15:52;19.10;85.50
54516;DHT22;40422;45.892;4.738;2023-09-12T05:18:18;19.10;86.00
54516;DHT22;40422;45.892;4.738;2023-09-12T05:20:44;19.10;85.80
54516;DHT22;40422;45.892;4.738;2023-09-12T05:23:09;19.10;85.70
54516;DHT22;40422;45.892;4.738;2023-09-12T05:25:35;19.10;85.60
54516;DHT22;40422;45.892;4.738;2023-09-12T05:28:00;19.10;85.70
54516;DHT22;40422;45.892;4.738;2023-09-12T05:30:26;19.10;86.30
54516;DHT22;40422;45.892;4.738;2023-09-12T05:32:52;19.20;86.40
54516;DHT22;40422;45.892;4.738;2023-09-12T05:35:18;19.30;86.10
54516;DHT22;40422;45.892;4.738;2023-09-12T05:37:43;19.10;86.70
54516;DHT22;40422;45.892;4.738;2023-09-12T05:40:09;19.10;87.40
54516;DHT22;40422;45.892;4.738;2023-09-12T05:42:35;19.10;88.40
54516;DHT22;40422;45.892;4.738;2023-09-12T05:45:01;19.20;88.60
54516;DHT22;40422;45.892;4.738;2023-09-12T05:47:27;19.50;87.30
54516;DHT22;40422;45.892;4.738;2023-09-12T05:49:52;19.70;87.40
54516;DHT22;40422;45.892;4.738;2023-09-12T05:52:18;19.80;86.00
54516;DHT22;40422;45.892;4.738;2023-09-12T05:54:45;20.00;86.70
54516;DHT22;40422;45.892;4.738;2023-09-12T05:57:11;20.20;85.40
54516;DHT22;40422;45.892;4.738;2023-09-12T05:59:37;20.20;84.30
54516;DHT22;40422;45.892;4.738;2023-09-12T06:02:07;20.10;85.50
54516;DHT22;40422;45.892;4.738;2023-09-12T06:04:35;20.20;85.10
54516;DHT22;40422;45.892;4.738;2023-09-12T06:07:03;20.30;85.80
54516;DHT22;40422;45.892;4.738;2023-09-12T06:09:29;20.20;84.60
54516;DHT22;40422;45.892;4.738;2023-09-12T06:11:55;20.20;85.10
54516;DHT22;40422;45.892;4.738;2023-09-12T06:14:20;20.40;85.40
54516;DHT22;40422;45.892;4.738;2023-09-12T06:16:46;20.60;85.20
54516;DHT22;40422;45.892;4.738;2023-09-12T06:19:12;20.80;84.40
54516;DHT22;40422;45.892;4.738;2023-09-12T06:21:40;21.00;83.70
54516;DHT22;40422;45.892;4.738;2023-09-12T06:24:12;21.10;82.20
54516;DHT22;40422;45.892;4.738;2023-09-12T06:26:38;21.00;83.00
54516;DHT22;40422;45.892;4.738;2023-09-12T06:29:04;21.00;82.20
54516;DHT22;40422;45.892;4.738;2023-09-12T06:31:30;21.00;82.70
54516;DHT22;40422;45.892;4.738;2023-09-12T06:33:56;21.00;82.90
54516;DHT22;40422;45.892;4.738;2023-09-12T06:36:25;21.20;83.00
54516;DHT22;40422;45.892;4.738;2023-09-12T06:38:53;21.40;82.40
54516;DHT22;40422;45.892;4.738;2023-09-12T06:41:20;21.60;82.00
54516;DHT22;40422;45.892;4.738;2023-09-12T06:43:45;21.70;81.60
54516;DHT22;40422;45.892;4.738;2023-09-12T06:46:11;21.80;80.90
54516;DHT22;40422;45.892;4.738;2023-09-12T06:48:37;21.70;80.20
54516;DHT22;40422;45.892;4.738;2023-09-12T06:51:08;21.60;80.10
54516;DHT22;40422;45.892;4.738;2023-09-12T06:53:33;21.60;80.30
54516;DHT22;40422;45.892;4.738;2023-09-12T06:55:59;21.50;80.90
54516;DHT22;40422;45.892;4.738;2023-09-12T06:58:25;21.40;80.70
54516;DHT22;40422;45.892;4.738;2023-09-12T07:00:51;21.40;81.30
54516;DHT22;40422;45.892;4.738;2023-09-12T07:03:16;21.50;81.00
54516;DHT22;40422;45.892;4.738;2023-09-12T07:05:43;21.40;80.60
54516;DHT22;40422;45.892;4.738;2023-09-12T07:08:09;21.40;80.70
54516;DHT22;40422;45.892;4.738;2023-09-12T07:10:35;21.50;80.70
54516;DHT22;40422;45.892;4.738;2023-09-12T07:13:01;21.60;80.30
54516;DHT22;40422;45.892;4.738;2023-09-12T07:15:27;21.80;80.70
54516;DHT22;40422;45.892;4.738;2023-09-12T07:17:52;21.90;80.50
54516;DHT22;40422;45.892;4.738;2023-09-12T07:20:18;22.10;80.60
54516;DHT22;40422;45.892;4.738;2023-09-12T07:22:45;22.20;80.50
54516;DHT22;40422;45.892;4.738;2023-09-12T07:25:14;22.40;80.20
54516;DHT22;40422;45.892;4.738;2023-09-12T07:27:40;22.50;79.80
54516;DHT22;40422;45.892;4.738;2023-09-12T07:30:06;22.50;79.30
54516;DHT22;40422;45.892;4.738;2023-09-12T07:32:33;22.40;79.80
54516;DHT22;40422;45.892;4.738;2023-09-12T07:34:58;22.20;80.00
54516;DHT22;40422;45.892;4.738;2023-09-12T07:37:24;22.10;81.30
54516;DHT22;40422;45.892;4.738;2023-09-12T07:39:50;22.10;82.00
54516;DHT22;40422;45.892;4.738;2023-09-12T07:42:15;22.10;82.20
54516;DHT22;40422;45.892;4.738;2023-09-12T07:44:41;22.20;82.40
54516;DHT22;40422;45.892;4.738;2023-09-12T07:47:07;22.50;81.30
54516;DHT22;40422;45.892;4.738;2023-09-12T07:49:32;22.70;80.30
54516;DHT22;40422;45.892;4.738;2023-09-12T07:51:58;23.00;79.60
54516;DHT22;40422;45.892;4.738;2023-09-12T07:54:24;23.20;78.70
54516;DHT22;40422;45.892;4.738;2023-09-12T07:56:49;23.30;78.00
54516;DHT22;40422;45.892;4.738;2023-09-12T07:59:15;23.50;77.90
54516;DHT22;40422;45.892;4.738;2023-09-12T08:01:40;23.60;76.80
54516;DHT22;40422;45.892;4.738;2023-09-12T08:04:06;23.70;75.70
54516;DHT22;40422;45.892;4.738;2023-09-12T08:06:32;23.80;74.50
54516;DHT22;40422;45.892;4.738;2023-09-12T08:08:58;23.90;74.40
54516;DHT22;40422;45.892;4.738;2023-09-12T08:11:26;24.00;75.10
54516;DHT22;40422;45.892;4.738;2023-09-12T08:13:52;24.10;74.00
54516;DHT22;40422;45.892;4.738;2023-09-12T08:16:18;24.30;72.70
54516;DHT22;40422;45.892;4.738;2023-09-12T08:18:43;24.50;72.00
54516;DHT22;40422;45.892;4.738;2023-09-12T08:21:10;24.60;71.50
54516;DHT22;40422;45.892;4.738;2023-09-12T08:23:35;24.70;68.20
54516;DHT22;40422;45.892;4.738;2023-09-12T08:26:01;24.70;67.20
54516;DHT22;40422;45.892;4.738;2023-09-12T08:28:27;24.90;67.50
54516;DHT22;40422;45.892;4.738;2023-09-12T08:30:53;25.00;67.80
54516;DHT22;40422;45.892;4.738;2023-09-12T08:33:19;25.20;66.80
54516;DHT22;40422;45.892;4.738;2023-09-12T08:35:44;25.40;65.80
54516;DHT22;40422;45.892;4.738;2023-09-12T08:38:10;25.50;65.30
54516;DHT22;40422;45.892;4.738;2023-09-12T08:40:37;25.60;67.00
54516;DHT22;40422;45.892;4.738;2023-09-12T08:43:03;25.80;64.70
54516;DHT22;40422;45.892;4.738;2023-09-12T08:45:29;26.00;64.90
54516;DHT22;40422;45.892;4.738;2023-09-12T08:47:57;26.20;63.90
54516;DHT22;40422;45.892;4.738;2023-09-12T08:50:23;26.40;63.60
54516;DHT22;40422;45.892;4.738;2023-09-12T08:52:50;26.60;64.40
54516;DHT22;40422;45.892;4.738;2023-09-12T08:55:16;26.90;64.00
54516;DHT22;40422;45.892;4.738;2023-09-12T08:57:43;27.10;63.60
54516;DHT22;40422;45.892;4.738;2023-09-12T09:00:10;27.20;62.50
54516;DHT22;40422;45.892;4.738;2023-09-12T09:02:40;27.20;63.00
54516;DHT22;40422;45.892;4.738;2023-09-12T09:05:07;27.30;63.00
54516;DHT22;40422;45.892;4.738;2023-09-12T09:07:35;27.40;62.90
54516;DHT22;40422;45.892;4.738;2023-09-12T09:10:03;27.60;63.40
54516;DHT22;40422;45.892;4.738;2023-09-12T09:12:32;27.70;63.50
54516;DHT22;40422;45.892;4.738;2023-09-12T09:14:57;27.80;63.30
54516;DHT22;40422;45.892;4.738;2023-09-12T09:17:23;28.00;63.10
54516;DHT22;40422;45.892;4.738;2023-09-12T09:19:49;28.20;62.90
54516;DHT22;40422;45.892;4.738;2023-09-12T09:22:15;28.40;62.50
54516;DHT22;40422;45.892;4.738;2023-09-12T09:24:41;28.50;62.70
54516;DHT22;40422;45.892;4.738;2023-09-12T09:27:07;28.60;63.00
54516;DHT22;40422;45.892;4.738;2023-09-12T09:29:46;28.70;62.90
54516;DHT22;40422;45.892;4.738;2023-09-12T09:32:18;28.90;63.10
54516;DHT22;40422;45.892;4.738;2023-09-12T09:34:44;28.90;63.50
54516;DHT22;40422;45.892;4.738;2023-09-12T09:37:09;29.00;63.70
54516;DHT22;40422;45.892;4.738;2023-09-12T09:39:36;29.10;63.30
54516;DHT22;40422;45.892;4.738;2023-09-12T09:42:02;29.20;63.40
54516;DHT22;40422;45.892;4.738;2023-09-12T09:44:28;29.30;63.80
54516;DHT22;40422;45.892;4.738;2023-09-12T09:46:59;29.50;63.10
54516;DHT22;40422;45.892;4.738;2023-09-12T09:49:30;29.70;63.20
54516;DHT22;40422;45.892;4.738;2023-09-12T09:51:56;29.80;62.60
54516;DHT22;40422;45.892;4.738;2023-09-12T09:54:25;29.90;63.00
54516;DHT22;40422;45.892;4.738;2023-09-12T09:56:54;30.00;63.00
54516;DHT22;40422;45.892;4.738;2023-09-12T09:59:22;30.30;62.50
54516;DHT22;40422;45.892;4.738;2023-09-12T10:01:50;30.40;62.70
54516;DHT22;40422;45.892;4.738;2023-09-12T10:04:18;30.40;61.60
54516;DHT22;40422;45.892;4.738;2023-09-12T10:06:45;30.50;61.80
54516;DHT22;40422;45.892;4.738;2023-09-12T10:09:14;30.50;62.00
54516;DHT22;40422;45.892;4.738;2023-09-12T10:11:40;30.40;61.70
54516;DHT22;40422;45.892;4.738;2023-09-12T10:14:07;30.30;62.10
54516;DHT22;40422;45.892;4.738;2023-09-12T10:16:35;30.40;62.90
54516;DHT22;40422;45.892;4.738;2023-09-12T10:19:26;30.70;62.20
54516;DHT22;40422;45.892;4.738;2023-09-12T10:24:28;31.30;61.60
54516;DHT22;40422;45.892;4.738;2023-09-12T10:26:55;31.20;61.20
54516;DHT22;40422;45.892;4.738;2023-09-12T10:29:22;31.30;61.70
54516;DHT22;40422;45.892;4.738;2023-09-12T10:31:48;31.30;61.30
54516;DHT22;40422;45.892;4.738;2023-09-12T10:34:15;31.20;61.20
54516;DHT22;40422;45.892;4.738;2023-09-12T10:36:41;31.40;61.80
54516;DHT22;40422;45.892;4.738;2023-09-12T10:39:09;31.60;61.80
54516;DHT22;40422;45.892;4.738;2023-09-12T10:41:37;31.60;61.20
54516;DHT22;40422;45.892;4.738;2023-09-12T10:44:10;31.80;61.50
54516;DHT22;40422;45.892;4.738;2023-09-12T10:46:40;32.00;60.90
54516;DHT22;40422;45.892;4.738;2023-09-12T10:49:07;32.10;61.30
54516;DHT22;40422;45.892;4.738;2023-09-12T10:51:37;32.30;60.50
54516;DHT22;40422;45.892;4.738;2023-09-12T10:54:04;32.50;60.30
54516;DHT22;40422;45.892;4.738;2023-09-12T10:56:30;32.50;60.10
54516;DHT22;40422;45.892;4.738;2023-09-12T11:01:33;32.80;60.30
54516;DHT22;40422;45.892;4.738;2023-09-12T11:06:47;32.70;59.50
54516;DHT22;40422;45.892;4.738;2023-09-12T11:09:26;32.50;59.00
54516;DHT22;40422;45.892;4.738;2023-09-12T11:11:58;32.70;59.40
54516;DHT22;40422;45.892;4.738;2023-09-12T11:14:24;32.70;59.60
54516;DHT22;40422;45.892;4.738;2023-09-12T11:19:46;33.10;59.50
54516;DHT22;40422;45.892;4.738;2023-09-12T11:22:31;33.30;59.20
54516;DHT22;40422;45.892;4.738;2023-09-12T11:24:57;33.40;58.80
54516;DHT22;40422;45.892;4.738;2023-09-12T11:27:45;33.60;59.70
54516;DHT22;40422;45.892;4.738;2023-09-12T11:30:12;33.90;59.60
54516;DHT22;40422;45.892;4.738;2023-09-12T11:32:38;34.10;57.70
54516;DHT22;40422;45.892;4.738;2023-09-12T11:35:07;34.30;58.50
54516;DHT22;40422;45.892;4.738;2023-09-12T11:37:33;34.50;57.70
54516;DHT22;40422;45.892;4.738;2023-09-12T11:40:15;34.30;56.50
54516;DHT22;40422;45.892;4.738;2023-09-12T11:42:42;34.40;57.10
54516;DHT22;40422;45.892;4.738;2023-09-12T11:45:09;34.60;56.80
54516;DHT22;40422;45.892;4.738;2023-09-12T11:47:43;34.90;56.80
54516;DHT22;40422;45.892;4.738;2023-09-12T11:50:30;35.20;57.10
54516;DHT22;40422;45.892;4.738;2023-09-12T11:53:04;35.60;56.10
54516;DHT22;40422;45.892;4.738;2023-09-12T11:55:32;35.90;56.00
54516;DHT22;40422;45.892;4.738;2023-09-12T11:57:58;36.00;55.90
54516;DHT22;40422;45.892;4.738;2023-09-12T12:00:23;36.00;54.80
54516;DHT22;40422;45.892;4.738;2023-09-12T12:02:52;35.60;55.10
54516;DHT22;40422;45.892;4.738;2023-09-12T12:05:17;35.80;55.30
54516;DHT22;40422;45.892;4.738;2023-09-12T12:07:43;35.80;55.00
54516;DHT22;40422;45.892;4.738;2023-09-12T12:10:12;35.90;54.60
54516;DHT22;40422;45.892;4.738;2023-09-12T12:12:37;35.90;54.70
54516;DHT22;40422;45.892;4.738;2023-09-12T12:15:03;35.80;54.30
54516;DHT22;40422;45.892;4.738;2023-09-12T12:17:29;35.80;54.80
54516;DHT22;40422;45.892;4.738;2023-09-12T12:19:54;35.90;55.30
54516;DHT22;40422;45.892;4.738;2023-09-12T12:22:21;36.00;55.10
54516;DHT22;40422;45.892;4.738;2023-09-12T12:24:48;36.00;55.10
54516;DHT22;40422;45.892;4.738;2023-09-12T12:27:16;36.30;54.70
54516;DHT22;40422;45.892;4.738;2023-09-12T12:29:42;36.40;54.20
54516;DHT22;40422;45.892;4.738;2023-09-12T12:32:10;36.40;54.70
54516;DHT22;40422;45.892;4.738;2023-09-12T12:34:36;36.50;55.00
54516;DHT22;40422;45.892;4.738;2023-09-12T12:37:03;36.50;54.70
54516;DHT22;40422;45.892;4.738;2023-09-12T12:39:28;36.50;54.40
54516;DHT22;40422;45.892;4.738;2023-09-12T12:41:55;36.50;54.80
54516;DHT22;40422;45.892;4.738;2023-09-12T12:44:21;36.60;54.60
54516;DHT22;40422;45.892;4.738;2023-09-12T12:46:53;36.60;54.10
54516;DHT22;40422;45.892;4.738;2023-09-12T12:49:20;36.20;54.60
54516;DHT22;40422;45.892;4.738;2023-09-12T12:51:48;36.10;54.40
54516;DHT22;40422;45.892;4.738;2023-09-12T12:54:15;36.50;54.30
54516;DHT22;40422;45.892;4.738;2023-09-12T12:56:42;36.60;53.10
54516;DHT22;40422;45.892;4.738;2023-09-12T12:59:08;35.90;53.60
54516;DHT22;40422;45.892;4.738;2023-09-12T13:01:37;35.60;54.10
54516;DHT22;40422;45.892;4.738;2023-09-12T13:04:09;35.60;54.10
54516;DHT22;40422;45.892;4.738;2023-09-12T13:06:35;35.80;54.20
54516;DHT22;40422;45.892;4.738;2023-09-12T13:09:05;35.80;54.20
54516;DHT22;40422;45.892;4.738;2023-09-12T13:11:32;35.50;54.20
54516;DHT22;40422;45.892;4.738;2023-09-12T13:14:01;35.30;54.20
54516;DHT22;40422;45.892;4.738;2023-09-12T13:16:27;34.90;55.40
54516;DHT22;40422;45.892;4.738;2023-09-12T13:18:53;34.70;55.20
54516;DHT22;40422;45.892;4.738;2023-09-12T13:21:19;34.50;55.00
54516;DHT22;40422;45.892;4.738;2023-09-12T13:23:44;34.50;55.50
54516;DHT22;40422;45.892;4.738;2023-09-12T13:26:10;34.50;55.80
54516;DHT22;40422;45.892;4.738;2023-09-12T13:28:36;34.30;55.50
54516;DHT22;40422;45.892;4.738;2023-09-12T13:31:02;34.30;56.30
54516;DHT22;40422;45.892;4.738;2023-09-12T13:33:28;34.20;55.50
54516;DHT22;40422;45.892;4.738;2023-09-12T13:35:54;34.20;56.70
54516;DHT22;40422;45.892;4.738;2023-09-12T13:38:20;34.40;56.00
54516;DHT22;40422;45.892;4.738;2023-09-12T13:40:46;34.40;55.70
54516;DHT22;40422;45.892;4.738;2023-09-12T13:43:12;34.40;56.30
54516;DHT22;40422;45.892;4.738;2023-09-12T13:45:38;34.50;56.50
54516;DHT22;40422;45.892;4.738;2023-09-12T13:48:05;34.90;55.70
54516;DHT22;40422;45.892;4.738;2023-09-12T13:50:31;35.40;56.60
54516;DHT22;40422;45.892;4.738;2023-09-12T13:53:01;35.90;54.80
54516;DHT22;40422;45.892;4.738;2023-09-12T13:55:29;36.30;54.70
54516;DHT22;40422;45.892;4.738;2023-09-12T13:57:55;36.40;54.40
54516;DHT22;40422;45.892;4.738;2023-09-12T14:00:20;36.70;53.80
54516;DHT22;40422;45.892;4.738;2023-09-12T14:02:46;37.00;53.50
54516;DHT22;40422;45.892;4.738;2023-09-12T14:05:12;37.20;52.90
54516;DHT22;40422;45.892;4.738;2023-09-12T14:07:38;37.30;52.60
54516;DHT22;40422;45.892;4.738;2023-09-12T14:10:06;37.20;52.90
54516;DHT22;40422;45.892;4.738;2023-09-12T14:12:32;36.90;53.20
54516;DHT22;40422;45.892;4.738;2023-09-12T14:14:58;36.80;52.60
54516;DHT22;40422;45.892;4.738;2023-09-12T14:17:24;36.70;52.70
54516;DHT22;40422;45.892;4.738;2023-09-12T14:19:50;36.20;52.80
54516;DHT22;40422;45.892;4.738;2023-09-12T14:22:16;36.00;53.30
54516;DHT22;40422;45.892;4.738;2023-09-12T14:24:42;35.90;53.10
54516;DHT22;40422;45.892;4.738;2023-09-12T14:27:08;35.80;53.50
54516;DHT22;40422;45.892;4.738;2023-09-12T14:29:33;35.70;53.30
54516;DHT22;40422;45.892;4.738;2023-09-12T14:31:59;35.50;53.50
54516;DHT22;40422;45.892;4.738;2023-09-12T14:34:25;35.30;53.60
54516;DHT22;40422;45.892;4.738;2023-09-12T14:36:53;35.00;54.60
54516;DHT22;40422;45.892;4.738;2023-09-12T14:39:20;34.80;54.60
54516;DHT22;40422;45.892;4.738;2023-09-12T14:41:46;34.60;55.20
54516;DHT22;40422;45.892;4.738;2023-09-12T14:44:19;34.30;55.10
54516;DHT22;40422;45.892;4.738;2023-09-12T14:46:44;34.00;55.30
54516;DHT22;40422;45.892;4.738;2023-09-12T14:49:10;33.80;55.60
54516;DHT22;40422;45.892;4.738;2023-09-12T14:51:36;33.50;55.50
54516;DHT22;40422;45.892;4.738;2023-09-12T14:54:04;33.40;55.90
54516;DHT22;40422;45.892;4.738;2023-09-12T14:56:31;33.10;56.00
54516;DHT22;40422;45.892;4.738;2023-09-12T14:58:57;33.00;56.30
54516;DHT22;40422;45.892;4.738;2023-09-12T15:01:22;32.90;56.90
54516;DHT22;40422;45.892;4.738;2023-09-12T15:03:50;32.80;57.10
54516;DHT22;40422;45.892;4.738;2023-09-12T15:06:17;32.70;57.50
54516;DHT22;40422;45.892;4.738;2023-09-12T15:08:42;32.60;57.70
54516;DHT22;40422;45.892;4.738;2023-09-12T15:11:08;32.50;57.60
54516;DHT22;40422;45.892;4.738;2023-09-12T15:13:34;32.30;57.80
54516;DHT22;40422;45.892;4.738;2023-09-12T15:16:00;32.00;58.30
54516;DHT22;40422;45.892;4.738;2023-09-12T15:18:25;31.80;58.60
54516;DHT22;40422;45.892;4.738;2023-09-12T15:20:52;31.60;59.80
54516;DHT22;40422;45.892;4.738;2023-09-12T15:23:18;31.30;61.10
54516;DHT22;40422;45.892;4.738;2023-09-12T15:25:44;31.10;62.40
54516;DHT22;40422;45.892;4.738;2023-09-12T15:28:09;30.80;62.80
54516;DHT22;40422;45.892;4.738;2023-09-12T15:30:35;30.70;63.70
54516;DHT22;40422;45.892;4.738;2023-09-12T15:33:01;30.40;64.60
54516;DHT22;40422;45.892;4.738;2023-09-12T15:35:26;30.10;65.80
54516;DHT22;40422;45.892;4.738;2023-09-12T15:37:52;29.90;66.90
54516;DHT22;40422;45.892;4.738;2023-09-12T15:40:18;29.80;68.40
54516;DHT22;40422;45.892;4.738;2023-09-12T15:42:43;29.60;69.00
54516;DHT22;40422;45.892;4.738;2023-09-12T15:45:09;29.50;69.90
54516;DHT22;40422;45.892;4.738;2023-09-12T15:47:36;29.30;71.20
54516;DHT22;40422;45.892;4.738;2023-09-12T15:50:02;29.10;72.10
54516;DHT22;40422;45.892;4.738;2023-09-12T15:52:28;28.90;73.90
54516;DHT22;40422;45.892;4.738;2023-09-12T15:54:54;28.80;75.40
54516;DHT22;40422;45.892;4.738;2023-09-12T15:57:20;28.70;76.00
54516;DHT22;40422;45.892;4.738;2023-09-12T15:59:45;28.50;77.40
54516;DHT22;40422;45.892;4.738;2023-09-12T16:02:11;28.20;79.40
54516;DHT22;40422;45.892;4.738;2023-09-12T16:04:37;28.00;83.00
54516;DHT22;40422;45.892;4.738;2023-09-12T16:07:02;27.80;86.20
54516;DHT22;40422;45.892;4.738;2023-09-12T16:09:28;27.50;85.30
54516;DHT22;40422;45.892;4.738;2023-09-12T16:11:54;27.40;88.00
54516;DHT22;40422;45.892;4.738;2023-09-12T16:14:19;27.20;89.40
54516;DHT22;40422;45.892;4.738;2023-09-12T16:16:45;27.10;90.80
54516;DHT22;40422;45.892;4.738;2023-09-12T16:19:11;26.90;91.60
54516;DHT22;40422;45.892;4.738;2023-09-12T16:21:37;26.70;92.30
54516;DHT22;40422;45.892;4.738;2023-09-12T16:24:03;26.50;95.50
54516;DHT22;40422;45.892;4.738;2023-09-12T16:26:29;26.30;96.40
54516;DHT22;40422;45.892;4.738;2023-09-12T16:28:55;26.00;98.00
54516;DHT22;40422;45.892;4.738;2023-09-12T16:31:20;25.80;99.90
54516;DHT22;40422;45.892;4.738;2023-09-12T16:33:46;25.40;99.90
54516;DHT22;40422;45.892;4.738;2023-09-12T16:36:12;25.10;99.90
54516;DHT22;40422;45.892;4.738;2023-09-12T16:38:38;24.90;99.90
54516;DHT22;40422;45.892;4.738;2023-09-12T16:41:03;24.70;99.90
54516;DHT22;40422;45.892;4.738;2023-09-12T16:43:30;24.50;99.90
54516;DHT22;40422;45.892;4.738;2023-09-12T16:45:56;24.50;99.90
54516;DHT22;40422;45.892;4.738;2023-09-12T16:48:22;24.40;99.90
54516;DHT22;40422;45.892;4.738;2023-09-12T16:50:48;24.40;99.90
54516;DHT22;40422;45.892;4.738;2023-09-12T16:53:13;24.30;99.90
54516;DHT22;40422;45.892;4.738;2023-09-12T16:55:41;24.20;99.90
54516;DHT22;40422;45.892;4.738;2023-09-12T16:58:07;24.20;99.90
54516;DHT22;40422;45.892;4.738;2023-09-12T17:00:32;24.20;99.90
54516;DHT22;40422;45.892;4.738;2023-09-12T17:02:59;24.00;99.90
54516;DHT22;40422;45.892;4.738;2023-09-12T17:05:24;23.70;99.90
54516;DHT22;40422;45.892;4.738;2023-09-12T17:07:51;23.40;99.90
54516;DHT22;40422;45.892;4.738;2023-09-12T17:10:17;23.20;99.90
54516;DHT22;40422;45.892;4.738;2023-09-12T17:12:47;22.90;99.90
54516;DHT22;40422;45.892;4.738;2023-09-12T17:15:13;22.60;99.90
54516;DHT22;40422;45.892;4.738;2023-09-12T17:17:43;22.40;99.90
54516;DHT22;40422;45.892;4.738;2023-09-12T17:20:09;22.30;99.90
54516;DHT22;40422;45.892;4.738;2023-09-12T17:22:35;22.20;99.90
54516;DHT22;40422;45.892;4.738;2023-09-12T17:25:00;22.10;99.90
54516;DHT22;40422;45.892;4.738;2023-09-12T17:27:26;22.00;99.90
54516;DHT22;40422;45.892;4.738;2023-09-12T17:29:54;22.00;99.90
54516;DHT22;40422;45.892;4.738;2023-09-12T17:32:20;22.00;99.90
54516;DHT22;40422;45.892;4.738;2023-09-12T17:34:46;22.10;99.90
54516;DHT22;40422;45.892;4.738;2023-09-12T17:37:15;22.10;99.90
54516;DHT22;40422;45.892;4.738;2023-09-12T17:39:42;22.00;99.90
54516;DHT22;40422;45.892;4.738;2023-09-12T17:42:07;22.00;99.90
54516;DHT22;40422;45.892;4.738;2023-09-12T17:44:33;21.90;99.90
54516;DHT22;40422;45.892;4.738;2023-09-12T17:46:58;21.90;99.90
54516;DHT22;40422;45.892;4.738;2023-09-12T17:49:27;21.90;99.90
54516;DHT22;40422;45.892;4.738;2023-09-12T17:51:53;21.90;99.90
54516;DHT22;40422;45.892;4.738;2023-09-12T17:54:18;22.00;99.90
54516;DHT22;40422;45.892;4.738;2023-09-12T17:56:44;22.00;99.90
54516;DHT22;40422;45.892;4.738;2023-09-12T17:59:09;22.10;99.90
54516;DHT22;40422;45.892;4.738;2023-09-12T18:01:35;22.10;99.90
54516;DHT22;40422;45.892;4.738;2023-09-12T18:04:02;22.10;99.90
54516;DHT22;40422;45.892;4.738;2023-09-12T18:06:28;22.10;99.90
54516;DHT22;40422;45.892;4.738;2023-09-12T18:08:54;22.10;99.90
54516;DHT22;40422;45.892;4.738;2023-09-12T18:11:20;22.10;99.90
54516;DHT22;40422;45.892;4.738;2023-09-12T18:13:46;22.10;99.90
54516;DHT22;40422;45.892;4.738;2023-09-12T18:16:15;22.00;99.90
54516;DHT22;40422;45.892;4.738;2023-09-12T18:18:42;22.00;99.90
54516;DHT22;40422;45.892;4.738;2023-09-12T18:21:08;21.90;99.90
54516;DHT22;40422;45.892;4.738;2023-09-12T18:23:34;21.90;99.90
54516;DHT22;40422;45.892;4.738;2023-09-12T18:26:05;21.90;99.90
54516;DHT22;40422;45.892;4.738;2023-09-12T18:31:12;21.90;99.90
54516;DHT22;40422;45.892;4.738;2023-09-12T18:33:38;21.90;99.90
54516;DHT22;40422;45.892;4.738;2023-09-12T18:36:05;21.80;99.90
54516;DHT22;40422;45.892;4.738;2023-09-12T18:38:30;21.70;99.90
54516;DHT22;40422;45.892;4.738;2023-09-12T18:40:56;21.70;99.90